createdAt,value
2022-09-17T08:42:17.559Z,100.00
2022-09-17T08:46:06.024Z,100.00
2022-09-17T08:50:17.816Z,100.00
2022-09-17T08:54:36.555Z,100.00
2022-09-17T08:58:32.984Z,100.00
2022-09-17T09:02:24.100Z,100.00
2022-09-17T09:06:14.863Z,100.00
2022-09-17T09:10:06.481Z,100.00
2022-09-17T09:13:55.178Z,100.00
2022-09-17T09:17:43.935Z,100.00
2022-09-17T09:21:34.661Z,100.00
2022-09-17T09:25:22.648Z,100.00
2022-09-17T09:29:16.107Z,100.00
2022-09-17T09:33:13.532Z,100.00
2022-09-17T09:37:01.386Z,100.00
2022-09-17T09:40:47.280Z,100.00
2022-09-17T09:44:37.757Z,100.00
2022-09-17T09:48:34.710Z,100.00
2022-09-17T09:52:22.892Z,100.00
2022-09-17T09:56:23.941Z,100.00
2022-09-17T10:00:12.409Z,100.00
2022-09-17T10:03:55.437Z,100.00
2022-09-17T10:07:45.944Z,100.00
2022-09-17T10:11:39.224Z,100.00
2022-09-17T10:15:27.848Z,100.00
2022-09-17T10:19:15.889Z,100.00
2022-09-17T10:23:21.501Z,100.00
2022-09-17T10:27:09.244Z,100.00
2022-09-17T10:31:07.842Z,100.00
2022-09-17T10:35:02.611Z,100.00
2022-09-17T10:38:50.271Z,100.00
2022-09-17T10:42:38.245Z,100.00
2022-09-17T10:46:27.760Z,100.00
2022-09-17T10:50:21.852Z,100.00
2022-09-17T10:54:11.637Z,100.00
2022-09-17T10:58:00.030Z,100.00
2022-09-17T11:01:06.162Z,100.00
2022-09-17T11:05:08.117Z,100.00
2022-09-17T11:08:58.698Z,100.00
2022-09-17T11:12:40.970Z,100.00
2022-09-17T11:16:34.672Z,100.00
2022-09-17T11:20:31.204Z,100.00
2022-09-17T11:24:24.219Z,100.00
2022-09-17T11:28:06.794Z,100.00
2022-09-17T11:32:02.210Z,100.00
2022-09-17T11:35:41.877Z,100.00
2022-09-17T11:39:27.890Z,100.00
2022-09-17T11:43:17.363Z,100.00
2022-09-17T11:47:13.009Z,100.00
2022-09-17T11:50:54.777Z,100.00
2022-09-17T11:54:48.604Z,100.00
2022-09-17T11:58:27.883Z,100.00
2022-09-17T12:02:21.860Z,100.00
2022-09-17T12:06:11.640Z,100.00
2022-09-17T12:09:53.848Z,100.00
2022-09-17T12:13:39.784Z,100.00
2022-09-17T12:17:28.076Z,100.00
2022-09-17T12:21:16.622Z,100.00
2022-09-17T12:25:07.310Z,100.00
2022-09-17T12:28:57.589Z,100.00
2022-09-17T12:32:43.269Z,100.00
2022-09-17T12:36:10.362Z,100.00
2022-09-17T12:40:17.571Z,100.00
2022-09-17T12:44:27.842Z,100.00
2022-09-17T12:48:28.240Z,100.00
2022-09-17T12:52:26.645Z,100.00
2022-09-17T12:56:20.564Z,99.88
2022-09-17T13:00:11.902Z,100.00
2022-09-17T13:04:03.663Z,100.00
2022-09-17T13:07:57.553Z,96.68
2022-09-17T13:12:04.406Z,91.13
2022-09-17T13:15:58.110Z,84.93
2022-09-17T13:20:16.517Z,83.42
2022-09-17T13:24:10.234Z,81.21
2022-09-17T13:27:59.374Z,89.10
2022-09-17T13:32:04.009Z,96.68
2022-09-17T13:35:55.123Z,100.00
2022-09-17T13:39:43.719Z,100.00
2022-09-17T13:43:41.363Z,100.00
2022-09-17T13:47:30.714Z,100.00
2022-09-17T13:51:35.073Z,100.00
2022-09-17T13:55:23.925Z,97.80
2022-09-17T13:59:20.562Z,90.64
2022-09-17T14:03:07.477Z,88.24
2022-09-17T14:06:56.784Z,89.93
2022-09-17T14:10:58.981Z,96.67
2022-09-17T14:14:51.314Z,97.42
2022-09-17T14:19:09.266Z,93.46
2022-09-17T14:23:11.556Z,89.56
2022-09-17T14:27:00.142Z,89.30
2022-09-17T14:31:01.063Z,86.87
2022-09-17T14:34:50.638Z,86.79
2022-09-17T14:38:38.269Z,83.42
2022-09-17T14:42:30.903Z,79.01
2022-09-17T14:46:19.967Z,75.23
2022-09-17T14:50:23.730Z,76.55
2022-09-17T14:54:09.990Z,78.47
2022-09-17T14:58:07.649Z,75.26
2022-09-17T15:02:01.322Z,74.70
2022-09-17T15:05:58.408Z,77.88
2022-09-17T15:09:46.435Z,78.22
2022-09-17T15:13:35.241Z,81.30
2022-09-17T15:17:23.590Z,86.89
2022-09-17T15:34:06.839Z,89.35
2022-09-17T15:42:29.839Z,94.57
2022-09-17T15:46:23.788Z,95.36
2022-09-17T15:50:26.636Z,92.53
2022-09-17T15:54:16.362Z,89.78
2022-09-17T15:58:04.131Z,83.93
2022-09-17T16:01:55.315Z,83.17
2022-09-17T16:05:55.732Z,85.49
2022-09-17T16:09:45.725Z,87.91
2022-09-17T16:13:34.734Z,91.05
2022-09-17T16:17:23.016Z,94.34
2022-09-17T16:21:14.955Z,95.74
2022-09-17T16:29:21.904Z,99.60
2022-09-17T16:33:09.674Z,100.00
2022-09-17T16:36:58.685Z,100.00
2022-09-17T16:40:49.406Z,100.00
2022-09-17T16:44:37.460Z,100.00
2022-09-17T16:48:27.862Z,100.00
2022-09-17T16:52:15.860Z,100.00
2022-09-17T16:56:04.224Z,100.00
2022-09-17T16:59:55.934Z,100.00
2022-09-17T17:03:43.264Z,100.00
2022-09-17T17:07:31.646Z,100.00
2022-09-17T17:11:21.046Z,100.00
2022-09-17T17:15:09.724Z,100.00
2022-09-17T17:18:58.392Z,98.26
2022-09-17T17:22:47.322Z,100.00
2022-09-17T17:26:36.420Z,100.00
2022-09-17T17:30:49.252Z,100.00
2022-09-17T17:34:37.318Z,100.00
2022-09-17T17:38:26.046Z,100.00
2022-09-17T17:42:14.867Z,100.00
2022-09-17T17:46:03.268Z,100.00
2022-09-17T17:49:52.420Z,100.00
2022-09-17T17:53:42.318Z,100.00
2022-09-17T17:57:31.080Z,100.00
2022-09-17T18:01:19.880Z,100.00
2022-09-17T18:05:08.709Z,100.00
2022-09-17T18:08:56.876Z,100.00
2022-09-17T18:12:45.644Z,100.00
2022-09-17T18:16:16.605Z,100.00
2022-09-17T18:20:08.046Z,100.00
2022-09-17T18:23:57.097Z,100.00
2022-09-17T18:27:49.426Z,100.00
2022-09-17T18:31:38.266Z,100.00
2022-09-17T18:35:24.360Z,100.00
2022-09-17T18:39:55.708Z,100.00
2022-09-17T18:43:33.323Z,100.00
2022-09-17T18:47:22.861Z,100.00
2022-09-17T18:51:15.035Z,100.00
2022-09-17T18:55:05.334Z,100.00
2022-09-17T18:58:38.026Z,100.00
2022-09-17T19:02:28.664Z,100.00
2022-09-17T19:06:17.157Z,100.00
2022-09-17T19:10:09.010Z,100.00
2022-09-17T19:13:58.568Z,100.00
2022-09-17T19:17:50.505Z,100.00
2022-09-17T19:21:43.117Z,100.00
2022-09-17T19:25:33.382Z,100.00
2022-09-17T19:29:22.099Z,100.00
2022-09-17T19:33:10.503Z,100.00
2022-09-17T19:36:59.893Z,100.00
2022-09-17T19:40:48.758Z,100.00
2022-09-17T19:44:43.063Z,100.00
2022-09-17T19:48:30.071Z,100.00
2022-09-17T19:52:18.314Z,100.00
2022-09-17T19:56:06.637Z,100.00
2022-09-17T19:59:54.366Z,100.00
2022-09-17T20:03:42.750Z,100.00
2022-09-17T20:07:30.709Z,100.00
2022-09-17T20:11:19.270Z,100.00
2022-09-17T20:15:07.400Z,100.00
2022-09-17T20:18:56.709Z,100.00
2022-09-17T20:22:45.290Z,100.00
2022-09-17T20:26:34.996Z,100.00
2022-09-17T20:30:23.382Z,100.00
2022-09-17T20:34:12.486Z,100.00
2022-09-17T20:42:09.896Z,100.00
2022-09-17T20:45:58.521Z,100.00
2022-09-17T20:49:49.243Z,100.00
2022-09-17T20:53:37.344Z,100.00
2022-09-17T20:57:25.720Z,100.00
2022-09-17T21:01:13.885Z,100.00
2022-09-17T21:05:02.449Z,100.00
2022-09-17T21:08:51.997Z,100.00
2022-09-17T21:12:40.051Z,100.00
2022-09-17T21:16:34.592Z,100.00
2022-09-17T21:20:22.738Z,100.00
2022-09-17T21:24:14.444Z,100.00
2022-09-17T21:28:03.117Z,100.00
2022-09-17T21:31:52.355Z,100.00
2022-09-17T21:35:40.149Z,100.00
2022-09-17T21:39:30.915Z,100.00
2022-09-17T21:43:20.399Z,100.00
2022-09-17T21:47:12.314Z,100.00
2022-09-17T21:51:02.524Z,100.00
2022-09-17T21:54:55.426Z,100.00
2022-09-17T21:58:45.760Z,100.00
2022-09-17T22:02:33.794Z,100.00
2022-09-17T22:06:22.091Z,100.00
2022-09-17T22:10:09.934Z,100.00
2022-09-17T22:13:57.819Z,100.00
2022-09-17T22:17:46.293Z,100.00
2022-09-17T22:21:34.715Z,100.00
2022-09-17T22:25:22.799Z,100.00
2022-09-17T22:29:10.733Z,100.00
2022-09-17T22:32:58.760Z,100.00
2022-09-17T22:36:43.257Z,100.00
2022-09-17T22:40:24.234Z,100.00
2022-09-17T22:44:05.055Z,100.00
2022-09-17T22:47:52.824Z,100.00
2022-09-17T22:51:40.663Z,100.00
2022-09-17T22:55:28.583Z,100.00
2022-09-17T22:59:15.962Z,100.00
2022-09-17T23:03:03.497Z,100.00
2022-09-17T23:06:51.113Z,100.00
2022-09-17T23:10:38.913Z,100.00
2022-09-17T23:14:27.075Z,100.00
2022-09-17T23:18:14.782Z,100.00
2022-09-17T23:22:02.674Z,100.00
2022-09-17T23:25:50.605Z,100.00
2022-09-17T23:29:38.222Z,100.00
2022-09-17T23:33:25.950Z,100.00
2022-09-17T23:37:13.558Z,100.00
2022-09-17T23:41:01.152Z,100.00
2022-09-17T23:44:48.800Z,100.00
2022-09-17T23:48:37.047Z,100.00
2022-09-17T23:52:25.106Z,100.00
2022-09-17T23:56:13.754Z,100.00
